This is the latest recevied weather packets stored in our database for station/object HS5XHC-1. If no packets are shown the sender has not sent any weather packets the latest 10 day(s).
| Time | Temp. | Humidity | Pressure | Rain* | Wind** | Luminosity | Snow |
|---|---|---|---|---|---|---|---|
| 1777943709 | 26.67° C | 58% | 971 hPa | - | - | 0 W/m² | - |
| 1777943085 | 26.11° C | 61% | 971 hPa | - | - | 0 W/m² | - |
| 1777942461 | 26.67° C | 60% | 971 hPa | - | - | 0 W/m² | - |
| 1777941836 | 25.56° C | 64% | 970 hPa | - | - | 0 W/m² | - |
| 1777941212 | 26.11° C | 63% | 970 hPa | - | - | 0 W/m² | - |
| 1777940588 | 26.67° C | 60% | 970 hPa | - | - | 0 W/m² | - |
| 1777939964 | 26.67° C | 59% | 970 hPa | - | - | 0 W/m² | - |
| 1777939341 | 27.22° C | 56% | 970 hPa | - | - | 0 W/m² | - |
| 1777938717 | 27.22° C | 57% | 970 hPa | - | - | 0 W/m² | - |
| 1777938093 | 26.67° C | 59% | 970 hPa | - | - | 0 W/m² | - |
| 1777937469 | 26.67° C | 58% | 970 hPa | - | - | 0 W/m² | - |
| 1777936845 | 26.67° C | 59% | 969 hPa | - | - | 0 W/m² | - |
| 1777936221 | 26.11° C | 61% | 969 hPa | - | - | 0 W/m² | - |
| 1777935597 | 25.56° C | 63% | 969 hPa | - | - | 0 W/m² | - |
| 1777934973 | 25° C | 66% | 969 hPa | - | - | 0 W/m² | - |
| 1777934349 | 25° C | 66% | 969 hPa | - | - | 0 W/m² | - |
| 1777933725 | 25° C | 66% | 969 hPa | - | - | 0 W/m² | - |
| 1777933101 | 24.44° C | 68% | 969 hPa | - | - | 0 W/m² | - |
| 1777932477 | 24.44° C | 66% | 969 hPa | - | - | 0 W/m² | - |
| 1777931853 | 24.44° C | 65% | 969 hPa | - | - | 0 W/m² | - |
| 1777931229 | 25° C | 64% | 969 hPa | - | - | 0 W/m² | - |
| 1777930605 | 25.56° C | 60% | 969 hPa | - | - | 0 W/m² | - |
| 1777929981 | 25.56° C | 61% | 969 hPa | - | - | 0 W/m² | - |
| 1777929357 | 26.67° C | 57% | 969 hPa | - | - | 0 W/m² | - |
| 1777928733 | 27.22° C | 55% | 969 hPa | - | - | 0 W/m² | - |
* Rain since midnight (hover to see other rain measurements)
** Current wind speed in m/s (hover to see current wind gust speed)